Terminal Aerodrome Forecast
Issued by NWS Louisville, KY

Home | Current Version | Previous Version | Text Only | Print | Product List | Glossary On
Versions: 1 2 3 4 5 6 7 8 9 10 11 12 13 14 15 16
696
FTUS43 KLMK 150521
TAFLEX
TAF
KLEX 150521Z 1506/1606 VRB03KT P6SM BKN045
     FM150900 00000KT 2SM BR BKN022
     FM151300 29006KT P6SM BKN040
     FM160000 00000KT P6SM SCT040=

USA.gov is the U.S. government's official web portal to all federal, state and local government web resources and services.